createdAt,value
2019-03-22T00:38:29.768Z,62.70
2019-03-22T01:00:26.251Z,62.70
2019-03-22T01:19:27.387Z,62.50
2019-03-22T02:27:28.393Z,67.30
2019-03-22T02:43:28.281Z,69.30
2019-03-22T03:01:27.823Z,69.00
2019-03-22T03:04:29.264Z,68.60
2019-03-22T03:05:29.494Z,68.70
2019-03-22T03:07:28.405Z,67.30
2019-03-22T03:08:27.960Z,68.70
2019-03-22T03:10:27.954Z,69.50
2019-03-22T03:11:27.953Z,67.80
2019-03-22T03:13:28.245Z,70.10
2019-03-22T03:14:28.690Z,69.60
2019-03-22T03:15:28.058Z,69.00
2019-03-22T03:16:28.220Z,70.20
2019-03-22T03:20:28.254Z,69.80
2019-03-22T03:21:28.372Z,69.80
2019-03-22T03:22:28.079Z,66.20
2019-03-22T03:23:28.114Z,67.60
2019-03-22T03:24:28.101Z,69.30
2019-03-22T03:25:28.419Z,66.70
2019-03-22T03:26:29.169Z,68.70
2019-03-22T03:27:28.603Z,67.90
2019-03-22T03:28:36.477Z,67.60
2019-03-22T03:29:28.194Z,64.50
2019-03-22T03:30:28.228Z,64.60
2019-03-22T03:31:28.217Z,64.00
2019-03-22T03:33:28.287Z,64.90
2019-03-22T03:38:28.712Z,59.70
2019-03-22T03:39:28.371Z,59.50
2019-03-22T03:40:28.389Z,59.00
2019-03-22T03:42:28.774Z,58.80
2019-03-22T03:43:28.364Z,59.40
2019-03-22T03:44:28.372Z,58.60
2019-03-22T03:45:28.377Z,58.40
2019-03-22T03:46:28.385Z,58.20
2019-03-22T03:47:28.414Z,57.70
2019-03-22T03:48:28.421Z,57.40
2019-03-22T03:49:29.870Z,56.80
2019-03-22T03:50:28.833Z,55.50
2019-03-22T03:53:29.308Z,54.20
2019-03-22T03:54:28.499Z,52.40
2019-03-22T03:55:28.507Z,52.00
2019-03-22T03:56:28.516Z,52.00
2019-03-22T03:57:28.551Z,51.50
2019-03-22T03:58:28.546Z,51.60
2019-03-22T03:59:28.549Z,51.90
2019-03-22T04:01:28.700Z,47.90
2019-03-22T04:02:28.645Z,47.90
2019-03-22T04:03:28.829Z,47.80
2019-03-22T04:04:29.121Z,48.40
2019-03-22T04:05:28.761Z,46.00
2019-03-22T04:06:28.642Z,46.70
2019-03-22T04:07:28.888Z,46.50
2019-03-22T04:08:28.671Z,45.20
2019-03-22T04:09:28.675Z,44.80
2019-03-22T04:10:28.687Z,45.80
2019-03-22T04:11:28.715Z,46.70
2019-03-22T04:12:28.878Z,45.20
2019-03-22T04:13:28.727Z,46.20
2019-03-22T04:14:28.733Z,45.10
2019-03-22T04:15:29.610Z,44.20
2019-03-22T04:16:28.765Z,46.30
2019-03-22T04:17:28.784Z,45.70
2019-03-22T04:18:28.788Z,45.70
2019-03-22T04:19:28.804Z,45.50
2019-03-22T04:20:28.818Z,45.10
2019-03-22T04:21:28.824Z,46.30
2019-03-22T04:22:29.169Z,44.20
2019-03-22T04:23:29.061Z,46.10
2019-03-22T04:24:28.864Z,45.00
2019-03-22T04:25:28.872Z,46.10
2019-03-22T04:26:28.892Z,45.40
2019-03-22T04:27:28.908Z,44.80
2019-03-22T04:28:29.675Z,45.60
2019-03-22T04:29:28.916Z,44.80
2019-03-22T04:31:28.943Z,45.70
2019-03-22T04:32:29.253Z,46.50
2019-03-22T04:33:28.971Z,45.60
2019-03-22T04:34:29.013Z,47.20
2019-03-22T04:35:28.992Z,47.50
2019-03-22T04:36:29.008Z,47.20
2019-03-22T04:37:29.025Z,47.80
2019-03-22T04:38:29.045Z,47.20
2019-03-22T04:39:29.092Z,47.30
2019-03-22T04:40:29.123Z,47.70
2019-03-22T04:41:29.077Z,47.10
2019-03-22T04:42:29.084Z,48.50
2019-03-22T04:43:29.120Z,46.10
2019-03-22T04:44:29.261Z,46.00
2019-03-22T04:45:29.677Z,47.50
2019-03-22T04:46:29.190Z,46.50
2019-03-22T04:48:29.168Z,46.40
2019-03-22T04:49:29.182Z,46.50
2019-03-22T04:50:29.181Z,46.70
2019-03-22T04:51:29.194Z,46.80
2019-03-22T04:52:29.201Z,46.10
2019-03-22T04:53:29.217Z,46.70
2019-03-22T04:54:29.231Z,46.50
2019-03-22T04:55:29.284Z,45.60
2019-03-22T04:56:29.259Z,46.90
2019-03-22T04:57:29.269Z,46.80
2019-03-22T04:58:29.283Z,46.30
2019-03-22T04:59:29.289Z,46.50
2019-03-22T05:00:29.301Z,45.00
2019-03-22T05:01:30.148Z,46.10
2019-03-22T05:02:29.337Z,45.00
2019-03-22T05:03:29.337Z,45.20
2019-03-22T05:04:29.349Z,45.30
2019-03-22T05:05:29.363Z,47.10
2019-03-22T05:06:29.453Z,46.10
2019-03-22T05:07:29.745Z,45.80
2019-03-22T05:08:29.407Z,44.50
2019-03-22T05:09:29.451Z,45.90
2019-03-22T05:10:29.424Z,45.60
2019-03-22T05:11:29.436Z,46.20
2019-03-22T05:12:29.501Z,46.10
2019-03-22T05:13:30.031Z,45.40
2019-03-22T05:14:29.540Z,44.70
2019-03-22T05:15:29.487Z,43.90
2019-03-22T05:16:29.504Z,44.10
2019-03-22T05:17:29.510Z,43.40
2019-03-22T05:18:30.603Z,44.50
2019-03-22T05:19:29.537Z,41.50
2019-03-22T05:20:29.676Z,42.70
2019-03-22T05:21:29.559Z,41.60
2019-03-22T05:22:29.573Z,41.60
2019-03-22T05:23:29.590Z,42.10
2019-03-22T05:24:29.597Z,41.30
2019-03-22T05:25:29.607Z,42.00
2019-03-22T05:26:29.625Z,41.10
2019-03-22T05:27:29.638Z,41.40
2019-03-22T05:28:29.651Z,40.60
2019-03-22T05:30:29.671Z,38.90
2019-03-22T05:31:29.686Z,38.70
2019-03-22T05:32:29.708Z,39.30
2019-03-22T05:33:29.717Z,39.00
2019-03-22T05:34:29.752Z,39.60
2019-03-22T05:35:29.733Z,37.80
2019-03-22T05:37:29.769Z,39.20
2019-03-22T05:38:29.805Z,40.20
2019-03-22T05:39:29.815Z,40.30
2019-03-22T05:40:29.793Z,41.20
2019-03-22T05:41:31.172Z,41.70
2019-03-22T05:42:29.828Z,42.10
2019-03-22T05:43:31.341Z,41.80
2019-03-22T05:44:30.236Z,44.10
2019-03-22T05:45:32.243Z,43.40
2019-03-22T05:46:29.870Z,43.30
2019-03-22T05:47:29.892Z,45.80
2019-03-22T05:48:29.898Z,42.90
2019-03-22T05:49:29.910Z,44.70
2019-03-22T05:50:29.923Z,44.60
2019-03-22T05:51:29.950Z,42.90
2019-03-22T05:52:29.944Z,43.20
2019-03-22T05:53:30.020Z,43.10
2019-03-22T05:54:29.971Z,43.00
2019-03-22T05:55:29.994Z,44.30
2019-03-22T05:56:29.992Z,43.80
2019-03-22T05:57:30.020Z,43.30
2019-03-22T05:58:30.043Z,42.70
2019-03-22T05:59:41.601Z,42.90
2019-03-22T06:00:30.057Z,44.00
2019-03-22T06:01:30.445Z,44.10
2019-03-22T06:02:30.061Z,43.70
2019-03-22T06:03:30.077Z,43.60
2019-03-22T06:04:30.099Z,42.90
2019-03-22T06:05:30.095Z,43.00
2019-03-22T06:06:30.108Z,41.40
2019-03-22T06:07:30.128Z,42.70
2019-03-22T06:08:30.189Z,41.40
2019-03-22T06:09:30.200Z,42.10
2019-03-22T06:10:30.163Z,42.40
2019-03-22T06:11:30.855Z,42.10
2019-03-22T06:12:30.688Z,41.00
2019-03-22T06:13:30.247Z,41.60
2019-03-22T06:14:30.314Z,41.20
2019-03-22T06:15:30.568Z,40.90
2019-03-22T06:16:30.233Z,42.40
2019-03-22T06:17:30.298Z,41.20
2019-03-22T06:18:30.517Z,43.10
2019-03-22T06:19:30.302Z,42.10
2019-03-22T06:20:30.278Z,43.60
2019-03-22T06:21:31.117Z,42.90
2019-03-22T06:22:30.393Z,41.80
2019-03-22T06:23:30.936Z,43.70
2019-03-22T06:24:30.513Z,44.50
2019-03-22T06:25:30.433Z,43.60
2019-03-22T06:26:33.561Z,45.40
2019-03-22T06:27:32.744Z,44.80
2019-03-22T06:28:30.379Z,43.80
2019-03-22T06:29:30.842Z,43.40
2019-03-22T06:30:30.404Z,44.30
2019-03-22T06:31:30.414Z,42.70
2019-03-22T06:32:30.422Z,45.00
2019-03-22T06:33:31.857Z,43.40
2019-03-22T06:34:30.478Z,41.50
2019-03-22T06:35:30.464Z,42.60
2019-03-22T06:36:30.538Z,42.40
2019-03-22T06:37:30.497Z,43.30
2019-03-22T06:38:30.508Z,54.40
2019-03-22T06:39:30.531Z,45.30
2019-03-22T06:40:30.540Z,42.40
2019-03-22T06:41:30.560Z,42.10
2019-03-22T06:42:30.660Z,41.60
2019-03-22T06:43:30.679Z,42.20
2019-03-22T06:44:30.577Z,40.90
2019-03-22T06:45:31.170Z,39.90
2019-03-22T06:46:30.642Z,42.00
2019-03-22T06:47:30.607Z,39.90
2019-03-22T06:48:30.736Z,40.40
2019-03-22T06:49:30.638Z,40.30
2019-03-22T06:50:31.608Z,38.60
2019-03-22T06:52:31.157Z,39.80
2019-03-22T06:53:30.697Z,40.50
2019-03-22T06:54:32.195Z,40.10
2019-03-22T06:55:30.853Z,41.40
2019-03-22T06:56:31.317Z,42.20
2019-03-22T06:57:31.825Z,41.50
2019-03-22T06:58:31.055Z,41.30
2019-03-22T06:59:31.451Z,43.20
2019-03-22T07:00:30.781Z,42.10
2019-03-22T07:02:31.592Z,43.70
2019-03-22T07:03:30.851Z,44.20
2019-03-22T07:04:31.432Z,45.30
2019-03-22T07:05:30.849Z,45.60
2019-03-22T07:06:31.041Z,44.40
2019-03-22T07:07:31.187Z,45.30
2019-03-22T07:08:30.941Z,44.90
2019-03-22T07:09:31.007Z,44.30
2019-03-22T07:10:31.767Z,45.80
2019-03-22T07:11:31.036Z,46.40
2019-03-22T07:12:31.681Z,45.30
2019-03-22T07:13:31.875Z,45.40
2019-03-22T07:14:31.592Z,46.10
2019-03-22T07:15:31.297Z,45.80
2019-03-22T07:16:30.971Z,45.60
2019-03-22T07:17:30.978Z,45.00
2019-03-22T07:18:30.990Z,44.60
2019-03-22T07:19:31.069Z,45.20
2019-03-22T07:20:31.154Z,45.80
2019-03-22T07:21:31.106Z,45.90
2019-03-22T07:22:31.045Z,45.30
2019-03-22T07:23:31.049Z,46.50
2019-03-22T07:24:31.065Z,47.60
2019-03-22T07:25:31.075Z,47.30
2019-03-22T07:26:31.096Z,47.30
2019-03-22T07:27:31.107Z,50.30
2019-03-22T07:28:31.115Z,49.20
2019-03-22T07:29:31.136Z,48.70
2019-03-22T07:30:31.141Z,47.90
2019-03-22T07:31:31.162Z,47.30
2019-03-22T07:32:31.169Z,52.20
2019-03-22T07:33:31.180Z,51.50
2019-03-22T07:34:31.188Z,52.60
2019-03-22T07:35:31.214Z,54.60
2019-03-22T07:36:31.217Z,56.30
2019-03-22T07:37:31.292Z,52.80
2019-03-22T07:38:31.246Z,55.30
2019-03-22T07:39:31.263Z,56.10
2019-03-22T07:40:31.265Z,56.50
2019-03-22T07:41:31.284Z,55.10
2019-03-22T07:42:31.304Z,58.50
2019-03-22T07:43:31.309Z,58.10
2019-03-22T07:44:31.325Z,59.20
2019-03-22T07:45:31.337Z,58.10
2019-03-22T07:46:31.353Z,58.80
2019-03-22T07:47:31.353Z,58.00
2019-03-22T07:48:31.379Z,57.40
2019-03-22T07:49:31.382Z,56.90
2019-03-22T07:50:31.400Z,57.70
2019-03-22T07:51:31.416Z,59.00
2019-03-22T07:52:31.434Z,56.60
2019-03-22T07:53:31.430Z,58.30
2019-03-22T07:54:31.450Z,57.50
2019-03-22T07:55:31.456Z,57.30
2019-03-22T07:56:31.468Z,55.30
2019-03-22T07:57:31.501Z,57.90
2019-03-22T07:58:31.497Z,57.20
2019-03-22T07:59:31.510Z,56.30
2019-03-22T08:00:31.525Z,58.90
2019-03-22T08:01:31.541Z,56.00
2019-03-22T08:02:31.549Z,56.40
2019-03-22T08:03:31.566Z,55.70
2019-03-22T08:04:31.596Z,55.40
2019-03-22T08:05:31.652Z,54.70
2019-03-22T08:06:31.611Z,55.70
2019-03-22T08:07:31.611Z,53.30
2019-03-22T08:08:31.625Z,53.10
2019-03-22T08:09:31.641Z,52.80
2019-03-22T08:10:31.664Z,53.70
2019-03-22T08:11:31.670Z,52.40
2019-03-22T08:12:31.675Z,52.50
2019-03-22T08:14:31.698Z,52.40
2019-03-22T08:15:31.726Z,52.10
2019-03-22T08:16:31.729Z,52.00
2019-03-22T08:17:31.760Z,52.70
2019-03-22T08:18:31.774Z,51.60
2019-03-22T08:19:31.840Z,53.30
2019-03-22T08:20:31.851Z,50.60
2019-03-22T08:21:31.807Z,51.00
2019-03-22T08:22:31.895Z,50.90
2019-03-22T08:23:31.831Z,50.70
2019-03-22T08:24:31.836Z,50.70
2019-03-22T08:25:32.618Z,49.30
2019-03-22T08:26:31.875Z,48.20
2019-03-22T08:27:31.882Z,49.10
2019-03-22T08:28:31.913Z,49.30
2019-03-22T08:29:31.897Z,48.70
2019-03-22T08:30:42.521Z,47.00
2019-03-22T08:31:31.938Z,48.10
2019-03-22T08:32:31.941Z,47.30
2019-03-22T08:33:31.971Z,52.30
2019-03-22T08:34:31.977Z,49.20
2019-03-22T08:35:32.007Z,47.50
2019-03-22T08:36:32.020Z,47.20
2019-03-22T08:37:32.015Z,46.50
2019-03-22T08:38:32.028Z,45.90
2019-03-22T08:39:32.043Z,45.80
2019-03-22T08:40:32.100Z,45.50
2019-03-22T08:41:32.102Z,46.40
2019-03-22T08:42:32.075Z,44.00
2019-03-22T08:43:32.129Z,45.30
2019-03-22T08:44:32.101Z,44.50
2019-03-22T08:45:32.128Z,45.00
2019-03-22T08:46:32.136Z,43.90
2019-03-22T08:47:34.164Z,45.20
2019-03-22T08:48:36.203Z,42.40
2019-03-22T08:49:32.346Z,41.00
2019-03-22T08:50:32.221Z,42.60
2019-03-22T08:51:32.204Z,42.50
2019-03-22T08:52:32.207Z,40.20
2019-03-22T08:53:32.250Z,42.50
2019-03-22T08:54:32.242Z,42.10
2019-03-22T08:55:32.271Z,41.30
2019-03-22T08:56:32.274Z,39.90
2019-03-22T08:57:32.295Z,40.40
2019-03-22T08:58:32.331Z,40.40
2019-03-22T08:59:32.297Z,40.20
2019-03-22T09:00:39.116Z,39.60
2019-03-22T09:01:32.328Z,39.40
2019-03-22T09:02:32.347Z,38.00
2019-03-22T09:03:32.356Z,37.90
2019-03-22T09:04:32.389Z,37.60
2019-03-22T09:05:32.403Z,37.70
2019-03-22T09:06:32.396Z,37.80
2019-03-22T09:07:32.444Z,38.20
2019-03-22T09:08:32.426Z,34.90
2019-03-22T09:09:41.413Z,34.00
2019-03-22T09:10:32.483Z,36.10
2019-03-22T09:11:32.483Z,33.30
2019-03-22T09:12:32.500Z,34.40
2019-03-22T09:13:32.500Z,35.20
2019-03-22T09:14:32.549Z,35.30
2019-03-22T09:15:41.110Z,34.30
2019-03-22T09:16:32.594Z,34.20
2019-03-22T09:17:32.556Z,35.30
2019-03-22T09:18:32.568Z,34.20
2019-03-22T09:19:32.631Z,32.70
2019-03-22T09:20:32.600Z,32.30
2019-03-22T09:21:32.657Z,32.90
2019-03-22T09:22:32.651Z,31.90
2019-03-22T09:23:32.663Z,31.90
2019-03-22T09:24:39.164Z,30.70
2019-03-22T09:25:32.664Z,31.60
2019-03-22T09:26:32.693Z,31.50
2019-03-22T09:27:32.696Z,31.20
2019-03-22T09:28:32.745Z,31.30
2019-03-22T09:29:32.749Z,28.80
2019-03-22T09:30:32.767Z,29.00
2019-03-22T09:32:33.066Z,28.50
2019-03-22T09:35:34.778Z,27.70
2019-03-22T09:36:32.809Z,26.40
2019-03-22T09:37:33.039Z,26.70
2019-03-22T09:38:32.849Z,26.70
2019-03-22T09:39:33.529Z,26.30
2019-03-22T09:40:32.869Z,26.20
2019-03-22T09:41:32.878Z,26.40
2019-03-22T09:42:32.910Z,25.00
2019-03-22T09:43:32.907Z,26.10
2019-03-22T09:44:42.808Z,25.90
2019-03-22T09:45:32.955Z,27.20
2019-03-22T09:46:32.957Z,26.20
2019-03-22T09:47:33.043Z,25.00
2019-03-22T09:48:32.983Z,24.30
2019-03-22T09:49:33.005Z,24.80
2019-03-22T09:50:33.046Z,23.80
2019-03-22T09:51:33.071Z,24.30
2019-03-22T09:52:33.801Z,23.70
2019-03-22T09:53:33.058Z,22.60
2019-03-22T09:54:33.169Z,23.40
2019-03-22T09:55:33.089Z,24.00
2019-03-22T09:56:46.088Z,23.50
2019-03-22T09:57:33.151Z,22.10
2019-03-22T09:58:33.131Z,21.70
2019-03-22T09:59:33.173Z,22.60
2019-03-22T10:00:33.177Z,25.60
2019-03-22T10:01:33.164Z,24.80
2019-03-22T10:02:33.216Z,24.60
2019-03-22T10:03:33.195Z,23.00
2019-03-22T10:04:33.246Z,24.60
2019-03-22T10:05:33.262Z,23.50
2019-03-22T10:06:33.234Z,22.20
2019-03-22T10:07:33.322Z,22.60
2019-03-22T10:08:33.272Z,23.30
2019-03-22T10:09:33.285Z,22.60
2019-03-22T10:10:33.301Z,22.80
2019-03-22T10:11:33.364Z,22.50
2019-03-22T10:12:33.332Z,22.80
2019-03-22T10:13:33.353Z,22.40
2019-03-22T10:14:33.403Z,21.90
2019-03-22T10:15:33.384Z,22.50
2019-03-22T10:16:33.412Z,21.10
2019-03-22T10:18:35.504Z,21.40
2019-03-22T10:19:33.473Z,20.40
2019-03-22T10:20:33.438Z,19.20
2019-03-22T10:21:33.462Z,17.50
2019-03-22T10:22:33.479Z,16.40
2019-03-22T10:23:33.512Z,16.00
2019-03-22T10:24:33.500Z,16.00
2019-03-22T10:25:33.517Z,15.80
2019-03-22T10:26:33.550Z,15.80
2019-03-22T10:27:33.574Z,16.50
2019-03-22T10:28:33.620Z,16.10
2019-03-22T10:29:33.568Z,14.30
2019-03-22T10:30:33.592Z,14.10
2019-03-22T10:31:37.549Z,15.10
2019-03-22T10:32:33.623Z,15.70
2019-03-22T10:33:33.662Z,14.10
2019-03-22T10:34:33.660Z,13.20
2019-03-22T10:35:33.654Z,13.50
2019-03-22T10:36:33.699Z,14.10
2019-03-22T10:37:33.702Z,13.30
2019-03-22T10:38:33.744Z,13.10
2019-03-22T10:39:33.762Z,13.80
2019-03-22T10:40:33.761Z,13.60
2019-03-22T10:41:33.761Z,14.90
2019-03-22T10:42:33.793Z,14.00
2019-03-22T10:43:33.808Z,13.60
2019-03-22T10:44:33.804Z,12.40
2019-03-22T10:45:33.839Z,12.50
2019-03-22T10:46:33.855Z,14.80
2019-03-22T10:47:33.872Z,14.10
2019-03-22T10:48:33.872Z,14.60
2019-03-22T10:49:33.895Z,14.00
2019-03-22T10:50:33.890Z,14.40
2019-03-22T10:51:33.901Z,14.00
2019-03-22T10:52:33.962Z,13.90
2019-03-22T10:53:33.925Z,13.00
2019-03-22T10:54:33.975Z,13.60
2019-03-22T10:55:35.472Z,13.10
2019-03-22T10:56:33.960Z,14.00
2019-03-22T10:57:33.986Z,14.00
2019-03-22T10:58:34.005Z,13.20
2019-03-22T10:59:34.015Z,12.50
2019-03-22T11:00:34.045Z,12.60
2019-03-22T11:01:46.445Z,11.70
2019-03-22T11:02:34.051Z,11.70
2019-03-22T11:03:34.103Z,11.40
2019-03-22T11:04:34.083Z,11.30
2019-03-22T11:05:34.096Z,11.60
2019-03-22T11:06:34.113Z,11.90
2019-03-22T11:07:34.143Z,11.90
2019-03-22T11:08:34.148Z,11.20
2019-03-22T11:09:34.165Z,10.70
2019-03-22T11:10:34.166Z,9.50
2019-03-22T11:11:34.200Z,9.50
2019-03-22T11:12:34.204Z,10.00
2019-03-22T11:13:34.210Z,10.60
2019-03-22T11:14:34.234Z,10.80
2019-03-22T11:15:34.263Z,11.70
2019-03-22T11:16:34.252Z,11.20
2019-03-22T11:17:34.271Z,11.90
2019-03-22T11:18:37.633Z,11.50
2019-03-22T11:19:34.303Z,11.20
2019-03-22T11:20:34.320Z,11.40
2019-03-22T11:21:34.359Z,11.40
2019-03-22T11:22:34.347Z,11.10
2019-03-22T11:23:34.364Z,11.50
2019-03-22T11:24:34.380Z,10.80
2019-03-22T11:25:34.404Z,11.10
2019-03-22T11:26:34.407Z,10.50
2019-03-22T11:27:34.445Z,10.70
2019-03-22T11:28:34.447Z,10.30
2019-03-22T11:29:34.456Z,12.80
2019-03-22T11:30:34.462Z,12.50
2019-03-22T11:31:39.717Z,13.80
2019-03-22T11:32:34.492Z,12.20
2019-03-22T11:33:34.508Z,12.70
2019-03-22T11:34:34.531Z,11.80
2019-03-22T11:35:34.549Z,12.20
2019-03-22T11:36:34.556Z,11.50
2019-03-22T11:37:34.581Z,11.20
2019-03-22T11:38:34.582Z,11.20
2019-03-22T11:39:34.603Z,11.30
2019-03-22T11:40:34.671Z,10.60
2019-03-22T11:41:34.628Z,11.10
2019-03-22T11:42:34.662Z,11.40
2019-03-22T11:43:34.659Z,11.30
2019-03-22T11:44:34.670Z,10.80
2019-03-22T11:45:34.702Z,10.40
2019-03-22T11:46:34.723Z,9.20
2019-03-22T11:47:34.719Z,8.60
2019-03-22T11:48:34.740Z,9.10
2019-03-22T11:49:34.753Z,8.40
2019-03-22T11:50:34.793Z,8.40
2019-03-22T11:51:34.776Z,8.70
2019-03-22T11:52:34.805Z,8.30
2019-03-22T11:53:34.807Z,9.20
2019-03-22T11:54:34.821Z,8.80
2019-03-22T11:56:35.075Z,9.30
2019-03-22T11:57:34.866Z,10.10
2019-03-22T11:58:34.895Z,10.00
2019-03-22T11:59:35.203Z,10.30
2019-03-22T12:00:34.925Z,9.20
2019-03-22T12:01:34.926Z,10.10
2019-03-22T12:02:34.942Z,10.30
2019-03-22T12:03:34.985Z,9.50
2019-03-22T12:04:34.970Z,9.90
2019-03-22T12:05:40.278Z,9.40
2019-03-22T12:06:35.011Z,10.20
2019-03-22T12:07:35.029Z,9.40
2019-03-22T12:08:35.030Z,9.40
2019-03-22T12:09:35.072Z,9.20
2019-03-22T12:10:35.128Z,9.80
2019-03-22T12:11:35.134Z,9.10
2019-03-22T12:12:35.136Z,9.50
2019-03-22T12:13:35.110Z,9.20
2019-03-22T12:14:35.128Z,9.40
2019-03-22T12:15:35.136Z,9.80
2019-03-22T12:16:35.150Z,9.20
2019-03-22T12:17:35.179Z,8.60
2019-03-22T12:18:35.198Z,8.20
2019-03-22T12:19:35.202Z,7.60
2019-03-22T12:20:35.210Z,7.60
2019-03-22T12:21:35.229Z,6.90
2019-03-22T12:22:35.242Z,7.20
2019-03-22T12:23:35.264Z,7.10
2019-03-22T12:24:35.273Z,7.30
2019-03-22T12:25:35.306Z,7.30
2019-03-22T12:26:35.305Z,7.20
2019-03-22T12:27:36.823Z,7.30
2019-03-22T12:28:35.335Z,7.10
2019-03-22T12:29:35.356Z,7.20
2019-03-22T12:30:35.409Z,7.40
2019-03-22T12:31:35.418Z,7.10
2019-03-22T12:32:35.429Z,6.70
2019-03-22T12:33:35.412Z,7.50
2019-03-22T12:34:35.437Z,7.10
2019-03-22T12:35:35.443Z,6.80
2019-03-22T12:36:35.464Z,7.10
2019-03-22T12:37:35.474Z,8.20
2019-03-22T12:38:35.491Z,8.20
2019-03-22T12:39:35.501Z,8.20
2019-03-22T12:40:35.519Z,8.50
2019-03-22T12:41:35.534Z,8.50
2019-03-22T12:42:35.551Z,7.70
2019-03-22T12:43:35.568Z,7.70
2019-03-22T12:44:35.573Z,7.60
2019-03-22T12:45:35.614Z,7.70
2019-03-22T12:46:35.613Z,7.10
2019-03-22T12:47:35.646Z,7.30
2019-03-22T12:48:35.662Z,7.60
2019-03-22T12:49:35.656Z,6.80
2019-03-22T12:50:35.686Z,7.10
2019-03-22T12:51:35.692Z,7.30
2019-03-22T12:52:35.706Z,6.90
2019-03-22T12:53:35.727Z,7.10
2019-03-22T12:54:35.739Z,7.40
2019-03-22T12:55:35.750Z,8.10
2019-03-22T12:56:35.764Z,7.60
2019-03-22T12:57:35.778Z,8.10
2019-03-22T12:58:35.792Z,7.40
2019-03-22T12:59:35.818Z,8.10
2019-03-22T13:00:36.120Z,7.70
2019-03-22T13:01:35.840Z,7.20
2019-03-22T13:02:42.213Z,6.30
2019-03-22T13:03:35.882Z,6.10
2019-03-22T13:04:35.922Z,7.60
2019-03-22T13:05:35.906Z,7.20
2019-03-22T13:06:36.228Z,12.30
2019-03-22T13:07:35.940Z,7.50
2019-03-22T13:08:35.962Z,7.20
2019-03-22T13:09:35.967Z,7.00
2019-03-22T13:10:35.984Z,9.00
2019-03-22T13:11:35.992Z,7.60
2019-03-22T13:12:36.008Z,6.90
2019-03-22T13:13:36.030Z,7.40
2019-03-22T13:14:36.338Z,7.70
2019-03-22T13:15:36.061Z,8.50
2019-03-22T13:16:36.069Z,9.00
2019-03-22T13:17:36.085Z,8.50
2019-03-22T13:18:36.128Z,8.00
2019-03-22T13:19:36.156Z,7.90
2019-03-22T13:20:36.131Z,8.40
2019-03-22T13:21:36.152Z,8.00
2019-03-22T13:22:37.424Z,8.30
2019-03-22T13:23:36.180Z,7.50
2019-03-22T13:24:36.196Z,7.90
2019-03-22T13:25:36.220Z,8.20
2019-03-22T13:26:36.224Z,8.50
2019-03-22T13:27:36.253Z,7.90
2019-03-22T13:28:36.254Z,8.10
2019-03-22T13:29:36.272Z,7.80
2019-03-22T13:30:36.290Z,7.60
2019-03-22T13:31:36.312Z,7.50
2019-03-22T13:32:36.318Z,7.10
2019-03-22T13:33:36.364Z,7.30
2019-03-22T13:34:36.352Z,7.30
2019-03-22T13:35:36.375Z,8.00
2019-03-22T13:36:36.376Z,8.10
2019-03-22T13:37:36.405Z,7.50
2019-03-22T13:38:36.403Z,7.40
2019-03-22T13:39:36.432Z,7.30
2019-03-22T13:40:36.473Z,7.40
2019-03-22T13:41:36.458Z,7.30
2019-03-22T13:42:36.479Z,7.40
2019-03-22T13:43:36.484Z,7.20
2019-03-22T13:44:36.500Z,7.60
2019-03-22T13:45:36.514Z,8.50
2019-03-22T13:46:40.432Z,7.20
2019-03-22T13:47:36.608Z,7.50
2019-03-22T13:48:36.559Z,7.20
2019-03-22T13:49:36.598Z,7.20
2019-03-22T13:50:36.609Z,7.60
2019-03-22T13:51:36.616Z,7.30
2019-03-22T13:52:36.645Z,6.90
2019-03-22T13:53:36.658Z,6.90
2019-03-22T13:54:36.666Z,7.10
2019-03-22T13:55:36.672Z,6.40
2019-03-22T13:56:36.703Z,6.90
2019-03-22T13:57:36.710Z,6.20
2019-03-22T13:58:36.751Z,6.70
2019-03-22T13:59:36.755Z,6.80
2019-03-22T14:00:36.762Z,6.70
2019-03-22T14:01:36.793Z,6.80
2019-03-22T14:02:36.789Z,6.70
2019-03-22T14:03:36.841Z,7.40
2019-03-22T14:04:36.855Z,7.70
2019-03-22T14:05:36.852Z,6.90
2019-03-22T14:06:36.865Z,7.20
2019-03-22T14:07:37.004Z,6.60
2019-03-22T14:08:36.917Z,6.50
2019-03-22T14:09:36.961Z,6.70
2019-03-22T14:10:37.004Z,6.70
2019-03-22T14:11:36.966Z,6.90
2019-03-22T14:12:37.459Z,6.70
2019-03-22T14:13:36.998Z,7.20
2019-03-22T14:14:37.041Z,7.40
2019-03-22T14:15:37.048Z,7.70
2019-03-22T14:16:37.096Z,7.30
2019-03-22T14:17:37.098Z,7.30
2019-03-22T14:18:37.112Z,7.60
2019-03-22T14:19:37.135Z,6.70
2019-03-22T14:20:37.151Z,7.40
2019-03-22T14:21:37.237Z,7.30
2019-03-22T14:22:37.193Z,7.30
2019-03-22T14:23:37.219Z,7.40
2019-03-22T14:24:37.247Z,7.20
2019-03-22T14:25:37.287Z,7.60
2019-03-22T14:26:37.294Z,7.60
2019-03-22T14:27:37.327Z,7.30
2019-03-22T14:28:37.375Z,7.70
2019-03-22T14:29:37.372Z,7.40
2019-03-22T14:30:37.416Z,7.90
2019-03-22T14:31:37.424Z,8.00
2019-03-22T14:32:37.453Z,7.70
2019-03-22T14:33:37.493Z,8.20
2019-03-22T14:34:37.504Z,8.00
2019-03-22T14:35:37.547Z,8.60
2019-03-22T14:36:37.542Z,7.40
2019-03-22T14:37:37.569Z,6.90
2019-03-22T14:38:37.590Z,7.50
2019-03-22T14:39:37.627Z,7.70
2019-03-22T14:40:37.646Z,7.30
2019-03-22T14:41:37.701Z,6.60
2019-03-22T14:42:37.714Z,7.10
2019-03-22T14:43:37.733Z,6.40
2019-03-22T14:44:37.730Z,6.40
2019-03-22T14:45:37.744Z,6.30
2019-03-22T14:46:37.772Z,7.10
2019-03-22T14:47:37.786Z,6.50
2019-03-22T14:48:37.815Z,6.70
2019-03-22T14:49:37.829Z,6.40
2019-03-22T14:50:37.860Z,6.30
2019-03-22T14:51:37.878Z,6.20
2019-03-22T14:52:37.957Z,6.50
2019-03-22T14:53:37.920Z,6.50
2019-03-22T14:54:37.959Z,6.60
2019-03-22T14:55:37.987Z,6.40
2019-03-22T14:56:37.976Z,6.40
2019-03-22T14:57:47.779Z,5.90
2019-03-22T14:58:38.011Z,6.20
2019-03-22T14:59:38.039Z,6.30
2019-03-22T15:00:38.050Z,9.40
2019-03-22T15:01:38.078Z,6.00
2019-03-22T15:02:38.102Z,6.80
2019-03-22T15:03:38.103Z,6.90
2019-03-22T15:04:38.117Z,7.90
2019-03-22T15:05:38.184Z,6.80
2019-03-22T15:06:38.166Z,6.10
2019-03-22T15:07:38.178Z,6.60
2019-03-22T15:08:38.192Z,6.30
2019-03-22T15:09:38.208Z,6.10
2019-03-22T15:10:38.223Z,6.10
2019-03-22T15:11:38.237Z,6.20
2019-03-22T15:12:38.255Z,6.60
2019-03-22T15:13:38.330Z,6.40
2019-03-22T15:14:38.295Z,6.00
2019-03-22T15:15:38.326Z,6.50
2019-03-22T15:16:38.320Z,6.60
2019-03-22T15:17:38.345Z,7.50
2019-03-22T15:18:38.358Z,6.20
2019-03-22T15:19:38.372Z,6.30
2019-03-22T15:20:38.392Z,6.30
2019-03-22T15:21:38.409Z,6.70
2019-03-22T15:22:38.423Z,6.10
2019-03-22T15:23:38.442Z,6.30
2019-03-22T15:24:38.479Z,5.80
2019-03-22T15:25:38.485Z,5.50
2019-03-22T15:26:38.501Z,5.60
2019-03-22T15:27:38.515Z,6.70
2019-03-22T15:28:38.564Z,5.80
2019-03-22T15:29:38.563Z,6.40
2019-03-22T15:30:38.599Z,6.10
2019-03-22T15:31:38.587Z,6.40
2019-03-22T15:32:38.593Z,6.10
2019-03-22T15:33:38.619Z,6.60
2019-03-22T15:34:38.640Z,6.50
2019-03-22T15:35:38.651Z,6.10
2019-03-22T15:36:38.671Z,6.50
2019-03-22T15:37:38.682Z,6.60
2019-03-22T15:38:38.793Z,6.80
2019-03-22T15:39:38.728Z,7.70
2019-03-22T15:40:38.727Z,7.10
2019-03-22T15:41:38.753Z,6.60
2019-03-22T15:42:38.757Z,7.40
2019-03-22T15:43:38.782Z,8.00
2019-03-22T15:44:38.805Z,7.00
2019-03-22T15:45:38.820Z,6.60
2019-03-22T15:46:38.840Z,7.60
2019-03-22T15:47:38.919Z,7.00
2019-03-22T15:48:38.893Z,7.20
2019-03-22T15:49:38.911Z,6.70
2019-03-22T15:50:38.928Z,7.10
2019-03-22T15:51:38.943Z,8.40
2019-03-22T15:52:38.968Z,8.10
2019-03-22T15:53:38.993Z,7.10
2019-03-22T15:54:39.011Z,6.50
2019-03-22T15:55:39.037Z,6.60
2019-03-22T15:56:39.074Z,6.40
2019-03-22T15:57:39.074Z,6.40
2019-03-22T15:58:39.091Z,6.20
2019-03-22T15:59:39.128Z,5.90
2019-03-22T16:00:39.129Z,6.00
2019-03-22T16:01:39.145Z,6.10
2019-03-22T16:02:39.167Z,6.10
2019-03-22T16:03:44.219Z,6.00
2019-03-22T16:04:39.202Z,6.50
2019-03-22T16:05:39.226Z,6.30
2019-03-22T16:06:39.245Z,6.00
2019-03-22T16:07:39.263Z,6.30
2019-03-22T16:08:39.309Z,5.90
2019-03-22T16:09:39.290Z,6.00
2019-03-22T16:10:39.352Z,5.80
2019-03-22T16:11:39.337Z,5.90
2019-03-22T16:12:40.937Z,6.00
2019-03-22T16:13:39.372Z,6.30
2019-03-22T16:14:39.384Z,6.20
2019-03-22T16:15:39.402Z,6.10
2019-03-22T16:16:39.629Z,6.00
2019-03-22T16:17:39.452Z,5.80
2019-03-22T16:18:39.475Z,6.10
2019-03-22T16:19:39.490Z,6.20
2019-03-22T16:20:39.518Z,6.30
2019-03-22T16:21:39.523Z,7.00
2019-03-22T16:22:39.525Z,6.70
2019-03-22T16:23:39.539Z,7.30
2019-03-22T16:24:39.560Z,6.60
2019-03-22T16:25:39.571Z,6.80
2019-03-22T16:26:39.592Z,6.80